Time;durP1;ratioP1;P1;durP2;ratioP2;P2;SDS_P1;SDS_P2;PMS_P1;PMS_P2;Temp;Humidity;BMP_temperature;BMP_pressure;BME280_temperature;BME280_humidity;BME280_pressure;Samples;Min_cycle;Max_cycle;Signal;HPM_P1;HPM_P2
2023/09/22 00:02:03;;;;;;;2.43;2.23;;;;;;;24.16;71.90;96275.50;4992051;28;20571;-24
2023/09/22 00:04:30;;;;;;;2.10;1.80;;;;;;;24.16;71.93;96260.94;4991557;28;20227;-24
2023/09/22 00:06:57;;;;;;;2.00;1.80;;;;;;;24.15;71.62;96256.66;4993732;28;20203;-24
2023/09/22 00:09:23;;;;;;;2.03;1.90;;;;;;;24.14;71.90;96260.09;4994996;28;20203;-23
2023/09/22 00:11:50;;;;;;;1.80;1.70;;;;;;;24.13;71.67;96244.72;4985579;28;20313;-23
2023/09/22 00:14:17;;;;;;;2.00;1.80;;;;;;;24.12;71.58;96246.41;4993979;28;20233;-23
2023/09/22 00:16:43;;;;;;;2.27;2.03;;;;;;;24.12;71.95;96238.72;4990229;28;20673;-24
2023/09/22 00:19:10;;;;;;;2.03;1.83;;;;;;;24.12;71.72;96237.84;4989509;28;20465;-24
2023/09/22 00:21:36;;;;;;;1.80;1.60;;;;;;;24.11;71.95;96237.00;4976771;28;20329;-23
2023/09/22 00:24:03;;;;;;;1.87;1.70;;;;;;;24.12;72.02;96253.25;4991944;28;20215;-23
2023/09/22 00:26:30;;;;;;;1.90;1.80;;;;;;;24.11;71.90;96257.53;4989316;28;20590;-24
2023/09/22 00:28:59;;;;;;;1.90;1.80;;;;;;;24.11;72.05;96260.09;4994745;28;20207;-24
2023/09/22 00:31:25;;;;;;;2.07;1.87;;;;;;;24.12;72.12;96258.38;4989442;28;20258;-24
2023/09/22 00:33:53;;;;;;;1.63;1.53;;;;;;;24.12;72.20;96248.97;4980989;28;20203;-23
2023/09/22 00:36:20;;;;;;;1.80;1.70;;;;;;;24.13;72.08;96257.53;4993264;28;20195;-23
2023/09/22 00:38:46;;;;;;;1.77;1.63;;;;;;;24.13;72.12;96242.13;4993868;28;20203;-23
2023/09/22 00:41:13;;;;;;;2.10;1.90;;;;;;;24.13;72.17;96252.41;4993856;28;20237;-23
2023/09/22 00:43:39;;;;;;;1.70;1.60;;;;;;;24.12;72.10;96250.69;4993363;28;20223;-23
2023/09/22 00:46:06;;;;;;;2.13;1.93;;;;;;;24.10;71.66;96250.69;4992923;28;20223;-23
2023/09/22 00:48:34;;;;;;;1.60;1.50;;;;;;;24.12;71.89;96256.69;4969110;28;20736;-24
2023/09/22 00:51:01;;;;;;;1.67;1.57;;;;;;;24.07;72.07;96239.56;4982835;28;20419;-24
2023/09/22 00:53:28;;;;;;;2.13;1.80;;;;;;;24.13;72.03;96254.97;4980358;28;20258;-23
2023/09/22 00:55:54;;;;;;;1.70;1.60;;;;;;;24.12;71.70;96248.97;4992825;28;20241;-23
2023/09/22 00:58:21;;;;;;;2.30;2.03;;;;;;;24.14;72.03;96264.38;4976361;28;20257;-24
2023/09/22 01:00:48;;;;;;;2.20;2.00;;;;;;;24.13;71.59;96271.22;4989796;28;20209;-24
2023/09/22 01:03:18;;;;;;;1.73;1.63;;;;;;;24.14;72.06;96272.94;4990004;28;20229;-22
2023/09/22 01:05:48;;;;;;;1.80;1.70;;;;;;;24.06;72.00;96254.13;4989940;28;20606;-23
2023/09/22 01:08:14;;;;;;;2.00;1.80;;;;;;;24.14;71.79;96269.50;4988291;28;20662;-23
2023/09/22 01:10:44;;;;;;;1.60;1.50;;;;;;;24.14;71.93;96264.38;4989049;28;20241;-23
2023/09/22 01:13:11;;;;;;;1.77;1.67;;;;;;;24.14;71.87;96259.25;4986346;28;20222;-24
2023/09/22 01:15:40;;;;;;;1.60;1.50;;;;;;;24.14;71.72;96264.38;4989191;28;20230;-23
2023/09/22 01:18:07;;;;;;;1.70;1.60;;;;;;;24.13;72.08;96260.94;4986617;28;20697;-23
2023/09/22 01:20:42;;;;;;;1.80;1.57;;;;;;;24.13;71.56;96253.25;4985439;28;20227;-23
2023/09/22 01:23:09;;;;;;;2.00;1.80;;;;;;;24.13;71.72;96250.69;4991556;28;20226;-23
2023/09/22 01:25:36;;;;;;;1.60;1.50;;;;;;;24.13;71.68;96248.09;4987990;28;20260;-23
2023/09/22 01:28:03;;;;;;;1.87;1.67;;;;;;;24.13;71.60;96242.13;4978461;28;20638;-23
2023/09/22 01:30:30;;;;;;;1.60;1.50;;;;;;;24.13;71.81;96237.00;4989100;28;20246;-24
2023/09/22 01:33:04;;;;;;;1.60;1.50;;;;;;;24.11;71.59;96239.56;4987673;28;20227;-22
2023/09/22 01:35:32;;;;;;;2.10;1.90;;;;;;;24.11;72.07;96244.72;4993715;28;20201;-24
2023/09/22 01:38:23;;;;;;;1.80;1.70;;;;;;;24.10;72.04;96239.56;4991154;28;20234;-22
2023/09/22 01:40:50;;;;;;;1.63;1.53;;;;;;;24.09;71.78;96238.72;4989067;28;20207;-23
2023/09/22 01:43:17;;;;;;;1.73;1.50;;;;;;;24.10;72.13;96245.53;4992588;28;20586;-24
2023/09/22 01:45:43;;;;;;;1.90;1.70;;;;;;;24.10;71.84;96242.16;4992585;28;20699;-24
2023/09/22 01:48:10;;;;;;;1.83;1.70;;;;;;;24.09;71.89;96243.84;4987637;28;20284;-23
2023/09/22 01:50:37;;;;;;;1.80;1.70;;;;;;;24.10;71.73;96249.84;4974087;28;20638;-23
2023/09/22 01:53:05;;;;;;;1.53;1.43;;;;;;;24.10;72.36;96248.09;5013255;23;20380;-23
2023/09/22 01:55:31;;;;;;;1.53;1.43;;;;;;;24.11;71.83;96256.69;5006165;28;20624;-23
2023/09/22 01:57:58;;;;;;;1.83;1.63;;;;;;;24.10;71.83;96260.94;5003046;28;20199;-22
2023/09/22 02:00:26;;;;;;;1.40;1.30;;;;;;;24.11;72.31;96254.09;5004148;28;20230;-24
2023/09/22 02:02:53;;;;;;;1.47;1.37;;;;;;;24.11;72.08;96256.69;4992998;28;20227;-23
2023/09/22 02:05:20;;;;;;;1.50;1.40;;;;;;;24.11;71.95;96256.69;4984293;28;20226;-23
2023/09/22 02:07:47;;;;;;;1.60;1.50;;;;;;;24.12;72.08;96269.50;4988260;28;20207;-23
2023/09/22 02:10:14;;;;;;;1.63;1.53;;;;;;;24.12;72.01;96271.22;4980673;28;20724;-32
2023/09/22 02:12:41;;;;;;;1.50;1.40;;;;;;;24.13;71.83;96275.50;4989635;28;20259;-30
2023/09/22 02:15:12;;;;;;;2.03;1.80;;;;;;;24.12;72.08;96259.25;4980624;28;20231;-23
2023/09/22 02:17:44;;;;;;;1.50;1.40;;;;;;;24.13;71.72;96255.81;4984521;28;20286;-25
2023/09/22 02:20:17;;;;;;;1.40;1.30;;;;;;;24.13;71.95;96255.81;4983779;28;20211;-32
2023/09/22 02:22:45;;;;;;;1.70;1.60;;;;;;;24.15;71.88;96258.38;4982823;28;20250;-24
2023/09/22 02:27:55;;;;;;;1.47;1.37;;;;;;;24.14;72.06;96272.94;5029407;22;20260;-26
2023/09/22 02:30:22;;;;;;;1.43;1.33;;;;;;;24.14;72.03;96279.78;5020024;28;20206;-26
2023/09/22 02:32:50;;;;;;;1.87;1.60;;;;;;;24.14;72.05;96295.19;5020461;28;20207;-25
2023/09/22 02:35:17;;;;;;;3.03;1.53;;;;;;;24.15;71.62;96295.19;5022306;28;20635;-26
2023/09/22 02:37:44;;;;;;;2.20;1.60;;;;;;;24.15;71.81;96294.31;5005166;28;20257;-26
2023/09/22 02:40:14;;;;;;;1.83;1.73;;;;;;;24.15;71.63;96295.19;5021056;23;20223;-26
2023/09/22 02:42:42;;;;;;;1.83;1.67;;;;;;;24.15;72.03;96302.00;5000679;28;20313;-27
2023/09/22 02:45:09;;;;;;;1.50;1.40;;;;;;;24.15;71.69;96308.00;5005915;28;20249;-27
2023/09/22 02:47:40;;;;;;;1.63;1.53;;;;;;;24.15;72.08;96325.97;5006681;28;20207;-26
2023/09/22 02:50:09;;;;;;;1.60;1.50;;;;;;;24.15;72.00;96318.28;4999701;28;20269;-26
2023/09/22 02:52:38;;;;;;;1.57;1.47;;;;;;;24.15;71.85;96310.56;5003520;28;20206;-27
2023/09/22 02:55:07;;;;;;;1.57;1.47;;;;;;;24.16;72.03;96296.03;4998776;28;20257;-26
2023/09/22 02:57:35;;;;;;;1.70;1.60;;;;;;;24.15;72.11;96279.78;5004580;28;20277;-26
2023/09/22 03:00:22;;;;;;;1.50;1.40;;;;;;;24.15;71.53;96269.50;5004788;28;20317;-30
2023/09/22 03:02:49;;;;;;;1.50;1.40;;;;;;;24.16;71.92;96272.94;5003008;28;20204;-31
2023/09/22 03:05:16;;;;;;;1.50;1.40;;;;;;;24.16;71.67;96288.34;5004558;28;20226;-26
2023/09/22 03:07:45;;;;;;;1.60;1.50;;;;;;;24.16;72.14;96296.03;5006544;28;20285;-29
2023/09/22 03:10:11;;;;;;;1.73;1.60;;;;;;;24.16;71.86;96288.34;5010663;28;20252;-30
2023/09/22 03:12:38;;;;;;;1.53;1.43;;;;;;;24.15;71.63;96277.22;5011998;28;20727;-26
2023/09/22 03:15:09;;;;;;;1.73;1.60;;;;;;;24.15;71.70;96263.50;5002799;28;20205;-29
2023/09/22 03:17:36;;;;;;;1.50;1.40;;;;;;;24.15;71.57;96258.38;5002060;28;20198;-28
2023/09/22 03:20:12;;;;;;;1.40;1.30;;;;;;;24.16;71.73;96260.09;5010168;28;20247;-26
2023/09/22 03:22:39;;;;;;;1.60;1.50;;;;;;;24.16;71.99;96260.94;5012902;28;20206;-26
2023/09/22 03:25:08;;;;;;;1.60;1.50;;;;;;;24.15;71.62;96261.81;5005185;28;20562;-26
2023/09/22 03:27:35;;;;;;;1.60;1.50;;;;;;;24.15;71.79;96258.38;5007815;28;20256;-26
2023/09/22 03:30:06;;;;;;;1.50;1.40;;;;;;;24.16;71.68;96266.06;5009730;28;20216;-33
2023/09/22 03:32:33;;;;;;;1.50;1.40;;;;;;;24.16;71.61;96260.94;5002993;28;20202;-26
2023/09/22 03:35:01;;;;;;;1.50;1.40;;;;;;;24.16;71.89;96276.34;5008792;28;20209;-33
2023/09/22 03:37:29;;;;;;;1.53;1.37;;;;;;;24.18;71.73;96278.91;5004939;28;20233;-26
2023/09/22 03:39:56;;;;;;;1.40;1.30;;;;;;;24.17;71.98;96282.34;5015109;28;20210;-26
2023/09/22 03:42:25;;;;;;;1.50;1.40;;;;;;;24.18;71.63;96291.75;5007991;28;20203;-26
2023/09/22 03:44:51;;;;;;;1.60;1.50;;;;;;;24.18;71.55;96287.47;5013220;28;20202;-26
2023/09/22 03:47:18;;;;;;;1.53;1.43;;;;;;;24.18;71.83;96294.31;5014978;28;20287;-26
2023/09/22 03:49:45;;;;;;;1.50;1.40;;;;;;;24.19;71.97;96296.88;5015217;28;20716;-26
2023/09/22 03:52:12;;;;;;;1.60;1.50;;;;;;;24.18;72.08;96300.31;5007165;28;20219;-27
2023/09/22 03:54:39;;;;;;;1.50;1.40;;;;;;;24.19;71.78;96299.44;5005673;28;20660;-28
2023/09/22 03:57:06;;;;;;;1.40;1.30;;;;;;;24.19;71.49;96303.75;5009360;28;20198;-28
2023/09/22 03:59:33;;;;;;;2.23;1.73;;;;;;;24.19;71.96;96306.31;5011631;28;20198;-26
2023/09/22 04:01:59;;;;;;;1.50;1.40;;;;;;;24.18;71.67;96309.72;5011461;28;20214;-28
2023/09/22 04:04:29;;;;;;;1.50;1.40;;;;;;;24.19;71.90;96303.75;5013377;28;20617;-26
2023/09/22 04:06:58;;;;;;;1.50;1.40;;;;;;;24.18;71.98;96305.44;5009905;28;20727;-26
2023/09/22 04:09:25;;;;;;;1.20;1.20;;;;;;;24.17;71.73;96308.00;5013568;28;20210;-26
2023/09/22 04:11:54;;;;;;;1.40;1.30;;;;;;;24.19;71.60;96311.44;5009561;28;20323;-26
2023/09/22 04:14:21;;;;;;;1.40;1.30;;;;;;;24.19;72.00;96316.56;5010450;28;20277;-26
2023/09/22 04:16:47;;;;;;;1.50;1.40;;;;;;;24.19;72.01;96326.84;5009497;28;20203;-26
2023/09/22 04:19:14;;;;;;;1.93;1.50;;;;;;;24.19;72.17;96335.38;5011783;28;20206;-28
2023/09/22 04:21:48;;;;;;;1.53;1.43;;;;;;;24.19;72.19;96326.84;5010666;28;20233;-26
2023/09/22 04:24:15;;;;;;;1.60;1.50;;;;;;;24.19;71.95;96326.84;5013341;28;20198;-27
2023/09/22 04:26:44;;;;;;;1.40;1.30;;;;;;;24.19;71.89;96335.38;5011112;28;20226;-26
2023/09/22 04:29:11;;;;;;;2.13;1.50;;;;;;;24.19;72.09;96355.91;5003404;28;20281;-26
2023/09/22 04:31:38;;;;;;;1.70;1.60;;;;;;;24.19;72.10;96337.94;5008589;28;20831;-26
2023/09/22 04:34:05;;;;;;;1.50;1.40;;;;;;;24.19;71.98;96349.94;5012856;28;20206;-35
2023/09/22 04:36:32;;;;;;;1.50;1.40;;;;;;;24.19;72.51;96348.22;5011895;28;20234;-26
2023/09/22 04:39:00;;;;;;;1.67;1.57;;;;;;;24.19;72.36;96361.06;5006041;28;20199;-26
2023/09/22 04:41:26;;;;;;;1.50;1.40;;;;;;;24.20;72.06;96373.06;5008386;28;20234;-26
2023/09/22 04:43:54;;;;;;;2.13;1.40;;;;;;;24.21;71.86;96377.31;5001921;28;20290;-27
2023/09/22 04:46:21;;;;;;;1.60;1.47;;;;;;;24.21;71.97;96381.59;5010684;28;20222;-26
2023/09/22 04:48:47;;;;;;;1.77;1.50;;;;;;;23.96;72.22;96334.53;5007274;28;20206;-30
2023/09/22 04:51:14;;;;;;;1.50;1.40;;;;;;;24.21;71.95;96382.47;5010347;28;20241;-38
2023/09/22 04:53:41;;;;;;;1.50;1.40;;;;;;;24.20;71.80;96380.75;5007446;28;20203;-32
2023/09/22 04:56:08;;;;;;;1.63;1.53;;;;;;;24.20;72.32;96375.63;5004050;28;20210;-33
2023/09/22 04:58:37;;;;;;;1.50;1.40;;;;;;;24.20;72.03;96378.19;5006190;28;20206;-30
2023/09/22 05:01:04;;;;;;;1.60;1.50;;;;;;;24.19;72.12;96386.72;5004761;28;20226;-32
2023/09/22 05:03:31;;;;;;;1.50;1.40;;;;;;;24.17;72.11;96393.59;5009138;28;20225;-26
2023/09/22 05:06:06;;;;;;;1.60;1.50;;;;;;;24.18;71.99;96389.28;4999710;28;20232;-36
2023/09/22 05:08:33;;;;;;;1.30;1.20;;;;;;;24.16;71.60;96381.59;5010766;28;20283;-35
2023/09/22 05:11:06;;;;;;;1.83;1.40;;;;;;;24.17;71.62;96385.03;5010951;28;20229;-26
2023/09/22 05:13:34;;;;;;;1.73;1.50;;;;;;;24.15;71.71;96402.13;5011884;28;20252;-27
2023/09/22 05:16:12;;;;;;;1.30;1.20;;;;;;;24.16;71.86;96406.44;5011292;28;20202;-26
2023/09/22 05:18:39;;;;;;;1.50;1.40;;;;;;;24.16;71.93;96403.88;5010795;28;20286;-29
2023/09/22 05:21:09;;;;;;;1.43;1.33;;;;;;;24.08;71.86;96402.97;5011668;28;20224;-28
2023/09/22 05:23:36;;;;;;;1.53;1.20;;;;;;;24.16;71.83;96430.38;5010302;28;20207;-27
2023/09/22 05:26:08;;;;;;;1.67;1.40;;;;;;;24.16;71.88;96424.41;5011215;28;20222;-26
2023/09/22 05:28:36;;;;;;;1.50;1.40;;;;;;;24.15;71.95;96428.66;5007681;28;20210;-30
2023/09/22 05:31:05;;;;;;;1.60;1.50;;;;;;;24.15;71.91;96430.38;5010903;28;20214;-26
2023/09/22 05:33:39;;;;;;;2.97;1.37;;;;;;;24.16;71.53;96435.50;5010753;28;20209;-35
2023/09/22 05:36:06;;;;;;;1.37;1.27;;;;;;;24.16;71.51;96434.66;5011074;28;20221;-27
2023/09/22 05:38:32;;;;;;;1.20;1.10;;;;;;;24.15;71.57;96433.78;5010914;28;20268;-26
2023/09/22 05:40:59;;;;;;;1.23;1.20;;;;;;;24.15;71.22;96438.06;5007031;28;20229;-28
2023/09/22 05:43:26;;;;;;;2.10;1.40;;;;;;;24.14;70.80;96439.78;5010377;28;20249;-31
2023/09/22 05:45:56;;;;;;;1.70;1.53;;;;;;;24.15;71.16;96458.59;5006263;28;20734;-27
2023/09/22 05:48:23;;;;;;;2.13;1.40;;;;;;;24.15;71.26;96456.03;5008954;28;20258;-29
2023/09/22 05:50:59;;;;;;;2.83;1.47;;;;;;;24.13;71.22;96456.03;5010096;28;20253;-28
2023/09/22 05:53:27;;;;;;;1.30;1.20;;;;;;;24.14;71.22;96455.19;5004078;28;20202;-31
2023/09/22 05:56:03;;;;;;;3.23;1.33;;;;;;;24.14;71.13;96456.91;5010435;28;20202;-29
2023/09/22 05:58:29;;;;;;;1.43;1.33;;;;;;;24.14;70.95;96465.47;5008178;28;20201;-26
2023/09/22 06:00:57;;;;;;;1.87;1.30;;;;;;;24.14;71.17;96467.16;5008333;28;20380;-35
2023/09/22 06:03:23;;;;;;;3.60;1.60;;;;;;;24.13;70.73;96468.03;5003982;28;20256;-29
2023/09/22 06:05:50;;;;;;;2.00;1.57;;;;;;;24.13;69.97;96468.88;5006331;28;20202;-26
2023/09/22 06:08:17;;;;;;;5.37;1.37;;;;;;;24.14;70.17;96474.88;5009688;28;20236;-42
2023/09/22 06:10:43;;;;;;;2.03;1.30;;;;;;;24.14;70.46;96464.59;5007938;28;20305;-32
2023/09/22 06:13:10;;;;;;;1.93;1.43;;;;;;;24.14;70.54;96469.72;5010520;28;20693;-26
2023/09/22 06:15:36;;;;;;;2.17;1.20;;;;;;;24.14;70.50;96474.88;5001126;28;20214;-26
2023/09/22 06:18:04;;;;;;;1.47;1.37;;;;;;;24.13;70.99;96463.72;4999831;28;20198;-32
2023/09/22 06:20:31;;;;;;;1.77;1.40;;;;;;;24.14;70.64;96470.59;5009469;28;20236;-31
2023/09/22 06:22:58;;;;;;;2.60;1.47;;;;;;;24.15;70.97;96471.44;5003669;28;20214;-27
2023/09/22 06:25:28;;;;;;;1.40;1.30;;;;;;;24.15;70.69;96466.31;5003626;28;20251;-26
2023/09/22 06:27:54;;;;;;;5.77;1.77;;;;;;;24.15;70.70;96462.03;5006295;28;20324;-28
2023/09/22 06:30:21;;;;;;;1.50;1.40;;;;;;;24.15;70.65;96463.72;5009505;28;20224;-26
2023/09/22 06:32:48;;;;;;;5.03;1.50;;;;;;;24.15;70.76;96463.72;5007916;28;20202;-28
2023/09/22 06:35:15;;;;;;;4.57;1.53;;;;;;;24.15;70.76;96462.03;5009934;28;20202;-26
2023/09/22 06:37:42;;;;;;;2.37;1.37;;;;;;;24.15;70.83;96461.16;5009031;28;20194;-31
2023/09/22 06:40:12;;;;;;;4.83;1.57;;;;;;;24.14;70.81;96457.78;5005813;28;20256;-27
2023/09/22 06:42:44;;;;;;;1.40;1.30;;;;;;;24.13;70.74;96445.75;5007384;28;20208;-26
2023/09/22 06:45:12;;;;;;;5.67;1.70;;;;;;;24.14;71.05;96442.38;5008246;28;20242;-27
2023/09/22 06:47:41;;;;;;;2.30;1.60;;;;;;;24.13;71.10;96453.47;5009393;28;20224;-27
2023/09/22 06:50:08;;;;;;;3.10;1.70;;;;;;;24.13;71.11;96447.50;5009359;28;20206;-28
2023/09/22 06:52:36;;;;;;;2.90;1.60;;;;;;;24.12;70.85;96438.06;5009084;28;20206;-31
2023/09/22 06:55:03;;;;;;;5.77;1.60;;;;;;;24.12;71.00;96441.50;5006793;28;20198;-26
2023/09/22 06:57:32;;;;;;;6.87;1.80;;;;;;;24.11;70.69;96455.19;5009117;28;20248;-28
2023/09/22 06:59:59;;;;;;;5.70;1.70;;;;;;;24.03;71.03;96449.16;5009672;28;20202;-30
2023/09/22 07:02:28;;;;;;;3.40;1.40;;;;;;;24.11;71.07;96470.59;5007297;28;20257;-29
2023/09/22 07:04:55;;;;;;;6.10;1.80;;;;;;;24.11;70.54;96486.00;5009496;28;20206;-26
2023/09/22 07:07:23;;;;;;;2.07;1.63;;;;;;;24.11;69.89;96505.66;5006640;28;20214;-29
2023/09/22 07:09:50;;;;;;;3.53;1.50;;;;;;;24.10;69.86;96497.09;5004377;28;20281;-30
2023/09/22 07:12:16;;;;;;;9.23;1.80;;;;;;;24.10;69.31;96507.38;5008041;28;20229;-26
2023/09/22 07:14:43;;;;;;;5.83;1.53;;;;;;;24.09;69.36;96508.22;5009387;28;20202;-31
2023/09/22 07:17:10;;;;;;;4.53;1.73;;;;;;;24.10;69.04;96514.22;5009165;28;20202;-30
2023/09/22 07:19:39;;;;;;;3.93;1.50;;;;;;;24.08;68.03;96521.91;5009226;28;20210;-26
2023/09/22 07:22:08;;;;;;;3.97;1.87;;;;;;;24.03;67.49;96515.91;5011149;28;20249;-30
2023/09/22 07:24:35;;;;;;;3.30;1.60;;;;;;;24.06;67.56;96523.63;5007746;28;20289;-31
2023/09/22 07:27:02;;;;;;;6.37;1.60;;;;;;;24.07;67.96;96530.44;5008426;28;20218;-30
2023/09/22 07:29:28;;;;;;;3.47;1.67;;;;;;;24.07;68.16;96532.19;5005605;28;20206;-31
2023/09/22 07:31:55;;;;;;;4.03;1.90;;;;;;;24.07;68.78;96538.16;5009293;28;20623;-26
2023/09/22 07:34:22;;;;;;;6.03;1.60;;;;;;;24.07;68.94;96537.31;5008260;28;20292;-31
2023/09/22 07:36:49;;;;;;;3.40;1.40;;;;;;;24.07;69.04;96533.03;5003887;28;20213;-31
2023/09/22 07:39:15;;;;;;;3.87;1.70;;;;;;;24.06;69.56;96536.44;5003643;28;20293;-26
2023/09/22 07:41:42;;;;;;;1.60;1.33;;;;;;;24.05;69.69;96539.88;5008265;28;20674;-28
2023/09/22 07:44:09;;;;;;;1.73;1.40;;;;;;;24.08;69.64;96546.72;5002077;28;20199;-28
2023/09/22 07:46:35;;;;;;;2.70;1.57;;;;;;;24.07;69.68;96553.56;5007822;28;20233;-29
2023/09/22 07:49:02;;;;;;;8.33;1.47;;;;;;;24.07;69.87;96550.16;5003061;28;20294;-27
2023/09/22 07:51:29;;;;;;;3.13;1.30;;;;;;;24.08;69.43;96551.84;5012213;28;20221;-28
2023/09/22 07:53:56;;;;;;;5.83;1.60;;;;;;;24.08;69.73;96569.81;5008825;28;20285;-29
2023/09/22 07:56:23;;;;;;;1.70;1.40;;;;;;;23.83;69.62;96530.31;5011405;28;20809;-26
2023/09/22 07:58:50;;;;;;;4.00;1.57;;;;;;;24.07;69.92;96568.97;5007003;28;20637;-30
2023/09/22 08:01:36;;;;;;;1.87;1.60;;;;;;;24.07;69.97;96570.69;5006543;28;20222;-28
2023/09/22 08:04:03;;;;;;;1.70;1.30;;;;;;;24.09;69.94;96579.22;5010169;28;20285;-30
2023/09/22 08:06:31;;;;;;;5.07;1.50;;;;;;;24.08;69.94;96573.25;5012646;28;20194;-29
2023/09/22 08:08:58;;;;;;;2.00;1.60;;;;;;;24.08;70.13;96580.97;5012651;28;20213;-27
2023/09/22 08:11:25;;;;;;;1.97;1.70;;;;;;;24.06;70.31;96582.66;5012641;28;20254;-29
2023/09/22 08:13:51;;;;;;;7.70;1.87;;;;;;;24.08;70.30;96585.22;5008218;28;20226;-26
2023/09/22 08:16:18;;;;;;;3.63;1.70;;;;;;;24.07;70.03;96592.06;5012820;28;20696;-26
2023/09/22 08:18:45;;;;;;;2.27;1.40;;;;;;;24.05;70.19;96580.09;5010990;28;20215;-28
2023/09/22 08:21:12;;;;;;;3.03;1.77;;;;;;;24.06;70.55;96592.91;5012641;28;20305;-32
2023/09/22 08:23:40;;;;;;;2.10;1.40;;;;;;;24.04;70.34;96594.63;5012243;28;20808;-28
2023/09/22 08:26:17;;;;;;;4.33;1.60;;;;;;;24.06;70.53;96594.63;5012254;28;20194;-27
2023/09/22 08:28:45;;;;;;;2.90;1.63;;;;;;;24.06;70.58;96595.50;5012398;28;20226;-27
2023/09/22 08:31:12;;;;;;;2.03;1.40;;;;;;;24.05;70.67;96587.78;5012625;28;20218;-26
2023/09/22 08:33:39;;;;;;;4.37;1.60;;;;;;;24.04;70.81;96586.06;5011747;28;20214;-30
2023/09/22 08:36:06;;;;;;;7.40;1.60;;;;;;;24.05;70.56;96593.78;5012332;28;20221;-28
2023/09/22 08:38:33;;;;;;;2.00;1.30;;;;;;;24.06;70.33;96600.63;5010517;28;20206;-29
2023/09/22 08:43:27;;;;;;;1.73;1.20;;;;;;;24.06;70.59;96594.63;4967012;28;20686;-22
2023/09/22 08:45:54;;;;;;;1.80;1.13;;;;;;;24.03;70.53;96587.78;4970167;28;20692;-22
2023/09/22 08:48:21;;;;;;;1.77;1.20;;;;;;;24.06;70.42;96590.34;4953858;28;20781;-25
2023/09/22 08:50:47;;;;;;;1.87;1.40;;;;;;;24.07;70.79;96591.22;4965019;28;20694;-23
2023/09/22 08:53:14;;;;;;;5.57;1.57;;;;;;;24.07;70.63;96591.22;4962151;28;20315;-23
2023/09/22 08:55:41;;;;;;;2.03;1.30;;;;;;;24.06;70.81;96592.06;4951737;28;20590;-22
2023/09/22 08:58:08;;;;;;;1.83;1.53;;;;;;;24.07;70.94;96604.91;4965950;28;20192;-22
2023/09/22 09:00:35;;;;;;;3.03;1.43;;;;;;;24.08;70.69;96610.91;4944681;28;20216;-22
2023/09/22 09:03:09;;;;;;;3.27;1.43;;;;;;;24.06;70.53;96608.31;4958719;28;20255;-22
2023/09/22 09:05:36;;;;;;;2.70;1.50;;;;;;;24.06;71.00;96616.03;4944248;28;20211;-24
2023/09/22 09:08:15;;;;;;;2.03;1.50;;;;;;;24.07;70.62;96625.44;4956854;28;20276;-23
2023/09/22 09:10:43;;;;;;;1.97;1.40;;;;;;;24.07;70.79;96628.00;4952541;28;20208;-22
2023/09/22 09:13:17;;;;;;;2.37;1.20;;;;;;;24.08;70.96;96626.31;4953101;28;20228;-22
2023/09/22 09:15:48;;;;;;;1.30;1.20;;;;;;;24.07;70.70;96625.44;4944985;28;20711;-23
2023/09/22 09:18:19;;;;;;;1.93;1.50;;;;;;;24.07;71.14;96619.47;4946868;28;20197;-22
2023/09/22 09:20:48;;;;;;;4.20;1.23;;;;;;;24.08;70.75;96627.16;4952225;28;20997;-22
2023/09/22 09:23:19;;;;;;;1.33;1.23;;;;;;;24.08;71.08;96639.13;4954682;28;20601;-22
2023/09/22 09:25:54;;;;;;;1.47;1.20;;;;;;;24.09;70.89;96638.28;4949911;28;20239;-22
2023/09/22 09:28:21;;;;;;;1.70;1.30;;;;;;;24.06;70.74;96631.44;4959011;28;20223;-23
2023/09/22 09:30:55;;;;;;;1.30;1.20;;;;;;;24.08;70.85;96641.69;4946688;28;20744;-24
2023/09/22 09:33:22;;;;;;;2.27;1.30;;;;;;;24.01;70.74;96638.22;4942019;28;21106;-24
2023/09/22 09:35:49;;;;;;;1.60;1.17;;;;;;;24.07;70.87;96640.84;4945466;28;20647;-24
2023/09/22 09:38:18;;;;;;;1.47;1.20;;;;;;;24.08;70.91;96642.56;4943756;28;20201;-23
2023/09/22 09:40:45;;;;;;;1.20;1.10;;;;;;;24.08;70.67;96642.56;4947404;28;20205;-22
2023/09/22 09:43:13;;;;;;;1.20;1.10;;;;;;;24.08;71.10;96641.69;4952163;28;20303;-24
2023/09/22 09:45:47;;;;;;;2.20;1.40;;;;;;;24.07;70.81;96635.69;4951519;28;20208;-24
2023/09/22 09:48:16;;;;;;;1.43;1.30;;;;;;;24.09;70.45;96620.31;4949779;28;20224;-24
2023/09/22 09:50:44;;;;;;;1.40;1.30;;;;;;;24.08;70.70;96616.03;4963208;28;20215;-24
2023/09/22 09:53:38;;;;;;;1.70;1.40;;;;;;;24.08;70.70;96624.59;4950895;28;20227;-23
2023/09/22 09:56:05;;;;;;;1.60;1.30;;;;;;;24.09;70.60;96621.16;4943296;28;20326;-24
2023/09/22 09:58:34;;;;;;;2.63;1.40;;;;;;;24.09;70.95;96618.59;4955957;28;20200;-24
2023/09/22 10:01:02;;;;;;;1.30;1.20;;;;;;;24.09;70.48;96598.06;4955872;28;20216;-23
2023/09/22 10:03:29;;;;;;;1.47;1.30;;;;;;;24.09;71.03;96592.06;4950696;28;20204;-23
2023/09/22 10:05:56;;;;;;;1.73;1.23;;;;;;;24.10;70.85;96591.25;4960797;28;20234;-22
2023/09/22 10:08:24;;;;;;;1.60;1.30;;;;;;;24.10;70.70;96593.81;4952096;28;20716;-23
2023/09/22 10:10:53;;;;;;;2.63;1.60;;;;;;;24.10;70.89;96594.63;4953185;28;20228;-22
2023/09/22 10:13:19;;;;;;;1.80;1.33;;;;;;;24.08;70.77;96603.19;4930362;29;20204;-22
2023/09/22 10:15:51;;;;;;;1.53;1.30;;;;;;;24.10;70.64;96599.78;4939501;28;20211;-22
2023/09/22 10:18:18;;;;;;;1.50;1.40;;;;;;;24.02;71.10;96580.94;4953298;28;20204;-23
2023/09/22 10:20:45;;;;;;;1.93;1.53;;;;;;;24.11;70.72;96603.22;4941043;28;20637;-24
2023/09/22 10:23:19;;;;;;;12.00;1.50;;;;;;;24.10;71.27;96607.47;4947751;28;20271;-22
2023/09/22 10:26:04;;;;;;;2.77;1.60;;;;;;;24.11;71.18;96613.47;4956723;28;20242;-23
2023/09/22 10:28:30;;;;;;;4.03;1.50;;;;;;;24.12;70.69;96615.19;4959522;28;20311;-23
2023/09/22 10:30:57;;;;;;;3.37;1.70;;;;;;;24.12;70.90;96616.06;4951865;28;20614;-23
2023/09/22 10:33:24;;;;;;;2.23;1.80;;;;;;;24.12;70.77;96617.75;4944336;28;20259;-24
2023/09/22 10:35:50;;;;;;;5.90;1.70;;;;;;;24.12;70.98;96620.31;4951383;28;20215;-22
2023/09/22 10:38:20;;;;;;;3.90;1.50;;;;;;;24.12;71.02;96615.19;4952768;28;20197;-24
2023/09/22 10:40:58;;;;;;;4.33;1.70;;;;;;;24.11;71.51;96613.47;4953413;28;20208;-23
2023/09/22 10:43:25;;;;;;;5.63;1.93;;;;;;;24.12;71.28;96613.50;4945862;28;20836;-23
2023/09/22 10:45:52;;;;;;;3.63;1.60;;;;;;;24.13;71.42;96624.63;4952296;28;20725;-24
2023/09/22 10:48:19;;;;;;;4.40;1.97;;;;;;;24.13;72.02;96624.63;4955749;28;20698;-24
2023/09/22 10:50:49;;;;;;;3.97;2.07;;;;;;;24.13;71.44;96624.63;4949274;28;20208;-24
2023/09/22 10:53:16;;;;;;;7.00;1.80;;;;;;;24.12;71.27;96634.03;4947573;28;20309;-23
2023/09/22 10:55:46;;;;;;;4.40;2.10;;;;;;;24.13;71.68;96625.47;4953985;28;20292;-24
2023/09/22 10:58:14;;;;;;;5.07;2.10;;;;;;;24.13;71.72;96614.34;4944041;28;20205;-24
2023/09/22 11:00:56;;;;;;;3.00;1.90;;;;;;;24.13;71.54;96606.66;4947770;28;20212;-23
2023/09/22 11:03:23;;;;;;;3.77;1.93;;;;;;;24.13;71.67;96598.94;4958095;28;20228;-22
2023/09/22 11:06:00;;;;;;;5.10;1.67;;;;;;;24.12;71.44;96600.66;4956042;28;20204;-23
2023/09/22 11:08:27;;;;;;;4.57;2.00;;;;;;;24.11;71.68;96606.66;4951075;28;20223;-23
2023/09/22 11:10:54;;;;;;;4.13;2.07;;;;;;;24.11;71.76;96598.06;4938207;28;20805;-22
2023/09/22 11:13:23;;;;;;;3.43;1.97;;;;;;;24.10;71.59;96593.81;4948169;28;20204;-23
2023/09/22 11:15:53;;;;;;;4.63;2.40;;;;;;;24.10;71.54;96592.06;4948549;28;20197;-23
2023/09/22 11:18:21;;;;;;;6.80;2.37;;;;;;;24.11;71.68;96596.38;4951736;28;20225;-22
2023/09/22 11:20:48;;;;;;;4.53;2.17;;;;;;;24.10;71.64;96609.22;4957871;28;20226;-22
2023/09/22 11:23:15;;;;;;;3.90;2.23;;;;;;;24.10;71.59;96611.78;4959820;28;20302;-22
2023/09/22 11:25:42;;;;;;;4.63;2.20;;;;;;;24.10;71.90;96610.03;4950502;28;20204;-23
2023/09/22 11:28:08;;;;;;;6.10;2.50;;;;;;;24.10;71.91;96612.59;4954755;28;20223;-23
2023/09/22 11:30:36;;;;;;;7.87;2.67;;;;;;;24.09;71.64;96610.91;4951119;28;20239;-23
2023/09/22 11:33:13;;;;;;;6.83;2.60;;;;;;;24.09;71.74;96607.47;4954814;28;20227;-23
2023/09/22 11:35:40;;;;;;;6.67;2.30;;;;;;;24.09;71.75;96608.34;4943574;28;20222;-22
2023/09/22 11:38:27;;;;;;;5.80;2.70;;;;;;;24.10;71.59;96615.19;4949173;28;20201;-23
2023/09/22 11:41:10;;;;;;;7.23;2.63;;;;;;;24.10;71.68;96610.03;4948207;28;20291;-23
2023/09/22 11:43:39;;;;;;;8.07;2.73;;;;;;;24.11;71.76;96610.91;4943713;28;20204;-22
2023/09/22 11:46:25;;;;;;;8.27;3.10;;;;;;;24.10;71.72;96604.91;4958320;28;20208;-22